createdAt,value
2023-01-09T00:01:34.133Z,4.36
2023-01-09T00:06:58.839Z,4.28
2023-01-09T00:12:33.450Z,4.27
2023-01-09T00:18:28.514Z,4.35
2023-01-09T00:24:04.956Z,4.45
2023-01-09T00:29:23.594Z,4.49
2023-01-09T00:34:57.028Z,4.48
2023-01-09T00:40:20.405Z,4.40
2023-01-09T00:45:58.477Z,4.35
2023-01-09T00:51:44.000Z,4.37
2023-01-09T00:57:40.916Z,4.43
2023-01-09T01:02:50.564Z,4.42
2023-01-09T01:08:05.445Z,4.33
2023-01-09T01:14:02.320Z,4.31
2023-01-09T01:19:33.866Z,4.37
2023-01-09T01:24:50.846Z,4.46
2023-01-09T01:30:17.681Z,4.50
2023-01-09T01:35:24.311Z,4.49
2023-01-09T01:40:38.447Z,4.42
2023-01-09T01:45:41.987Z,4.38
2023-01-09T01:50:56.617Z,4.44
2023-01-09T01:57:01.502Z,4.54
2023-01-09T02:02:13.322Z,4.50
2023-01-09T02:07:16.925Z,4.45
2023-01-09T02:13:03.484Z,4.43
2023-01-09T02:18:56.833Z,4.46
2023-01-09T02:25:09.117Z,4.50
2023-01-09T02:30:47.379Z,4.49
2023-01-09T02:36:32.601Z,4.41
2023-01-09T02:42:51.903Z,4.39
2023-01-09T02:48:22.429Z,4.52
2023-01-09T02:53:56.099Z,4.64
2023-01-09T02:59:37.706Z,4.68
2023-01-09T03:05:31.776Z,4.59
2023-01-09T03:11:27.673Z,4.51
2023-01-09T03:16:40.810Z,4.50
2023-01-09T03:21:48.354Z,4.53
2023-01-09T03:26:55.634Z,4.55
2023-01-09T03:32:13.366Z,4.51
2023-01-09T03:37:21.671Z,4.46
2023-01-09T03:42:51.301Z,4.45
2023-01-09T03:48:30.096Z,4.47
2023-01-09T03:54:05.036Z,4.55
2023-01-09T03:59:31.475Z,4.63
2023-01-09T04:05:01.368Z,4.59
2023-01-09T04:10:50.419Z,4.54
2023-01-09T04:16:25.585Z,4.50
2023-01-09T04:22:25.423Z,4.52
2023-01-09T04:28:07.826Z,4.55
2023-01-09T04:33:51.714Z,4.51
2023-01-09T04:40:08.741Z,4.53
2023-01-09T04:45:17.261Z,4.65
2023-01-09T04:56:45.042Z,4.66
2023-01-09T05:08:56.741Z,4.61
2023-01-09T05:14:22.806Z,4.67
2023-01-09T05:19:28.838Z,4.73
2023-01-09T05:24:32.343Z,4.76
2023-01-09T05:29:35.581Z,4.78
2023-01-09T05:34:38.923Z,4.77
2023-01-09T05:39:51.520Z,4.78
2023-01-09T05:45:14.834Z,4.82
2023-01-09T05:50:28.847Z,4.79
2023-01-09T05:55:48.423Z,4.76
2023-01-09T06:01:35.285Z,4.76
2023-01-09T06:07:01.493Z,4.82
2023-01-09T06:12:07.577Z,4.84
2023-01-09T06:17:12.038Z,4.81
2023-01-09T06:22:15.479Z,4.79
2023-01-09T06:27:42.052Z,4.83
2023-01-09T06:32:54.049Z,4.91
2023-01-09T06:38:03.171Z,4.90
2023-01-09T06:43:06.943Z,4.87
2023-01-09T06:48:14.040Z,4.85
2023-01-09T06:54:12.751Z,4.88
2023-01-09T06:59:24.655Z,4.95
2023-01-09T07:04:33.717Z,4.97
2023-01-09T07:10:09.410Z,4.94
2023-01-09T07:15:18.566Z,4.88
2023-01-09T07:21:02.520Z,4.85
2023-01-09T07:26:32.083Z,4.89
2023-01-09T07:31:37.841Z,4.98
2023-01-09T07:36:52.781Z,5.02
2023-01-09T07:42:22.517Z,5.04
2023-01-09T07:47:42.554Z,5.02
2023-01-09T07:52:51.060Z,5.04
2023-01-09T07:58:53.893Z,5.11
2023-01-09T08:04:37.661Z,5.24
2023-01-09T08:09:45.773Z,5.26
2023-01-09T08:14:52.175Z,5.26
2023-01-09T08:20:11.302Z,5.23
2023-01-09T08:25:14.830Z,5.26
2023-01-09T08:30:18.865Z,5.32
2023-01-09T08:35:47.854Z,5.40
2023-01-09T08:41:20.149Z,5.46
2023-01-09T08:47:17.990Z,5.43
2023-01-09T08:52:51.937Z,5.44
2023-01-09T08:58:25.726Z,5.55
2023-01-09T09:03:44.762Z,5.64
2023-01-09T09:08:56.513Z,5.60
2023-01-09T09:14:00.535Z,5.56
2023-01-09T09:19:04.267Z,5.56
2023-01-09T09:24:33.095Z,5.61
2023-01-09T09:29:39.857Z,5.70
2023-01-09T09:35:03.659Z,5.78
2023-01-09T09:40:44.360Z,5.77
2023-01-09T09:46:27.741Z,5.78
2023-01-09T09:51:48.444Z,5.87
2023-01-09T09:57:26.089Z,5.91
2023-01-09T10:02:56.300Z,5.94
2023-01-09T10:08:15.825Z,5.90
2023-01-09T10:13:41.566Z,5.88
2023-01-09T10:19:22.615Z,5.90
2023-01-09T10:24:42.258Z,5.95
2023-01-09T10:30:12.264Z,5.94
2023-01-09T10:35:47.430Z,5.85
2023-01-09T10:41:13.372Z,5.85
2023-01-09T10:46:49.292Z,5.94
2023-01-09T10:51:57.902Z,6.00
2023-01-09T10:57:22.796Z,6.00
2023-01-09T11:02:35.441Z,5.97
2023-01-09T11:07:58.874Z,5.96
2023-01-09T11:13:24.507Z,6.02
2023-01-09T11:18:32.118Z,6.10
2023-01-09T11:23:38.161Z,6.18
2023-01-09T11:28:41.849Z,6.20
2023-01-09T11:34:06.811Z,6.17
2023-01-09T11:39:25.377Z,6.13
2023-01-09T11:44:39.257Z,6.13
2023-01-09T11:51:01.085Z,6.19
2023-01-09T11:56:39.777Z,6.23
2023-01-09T12:02:24.625Z,6.19
2023-01-09T12:08:24.417Z,6.17
2023-01-09T12:14:27.024Z,6.22
2023-01-09T12:20:36.253Z,6.27
2023-01-09T12:26:44.911Z,6.26
2023-01-09T12:32:23.798Z,6.26
2023-01-09T12:38:22.456Z,6.33
2023-01-09T12:43:49.966Z,6.45
2023-01-09T12:49:20.589Z,6.53
2023-01-09T12:54:55.308Z,6.50
2023-01-09T13:00:48.137Z,6.49
2023-01-09T13:06:04.726Z,6.53
2023-01-09T13:19:25.436Z,6.67
2023-01-09T13:25:12.499Z,6.66
2023-01-09T13:30:50.849Z,6.68
2023-01-09T13:35:57.782Z,6.74
2023-01-09T13:41:33.023Z,6.83
2023-01-09T13:46:43.625Z,6.88
2023-01-09T13:51:50.002Z,6.87
2023-01-09T13:57:19.063Z,6.90
2023-01-09T14:03:05.196Z,6.97
2023-01-09T14:08:22.196Z,7.04
2023-01-09T14:13:33.449Z,7.08
2023-01-09T14:18:55.162Z,7.05
2023-01-09T14:24:41.029Z,7.06
2023-01-09T14:29:45.374Z,7.11
2023-01-09T14:35:08.841Z,7.17
2023-01-09T14:40:21.746Z,7.22
2023-01-09T14:46:05.730Z,7.23
2023-01-09T14:51:44.584Z,7.25
2023-01-09T14:56:48.360Z,7.32
2023-01-09T15:02:32.323Z,7.36
2023-01-09T15:07:58.572Z,7.35
2023-01-09T15:13:43.428Z,7.36
2023-01-09T15:19:00.583Z,7.44
2023-01-09T15:24:27.192Z,7.49
2023-01-09T15:29:46.851Z,7.47
2023-01-09T15:34:50.918Z,7.50
2023-01-09T15:39:56.458Z,7.52
2023-01-09T15:45:05.430Z,7.57
2023-01-09T15:50:21.732Z,7.58
2023-01-09T15:56:22.063Z,7.59
2023-01-09T16:01:41.889Z,7.68
2023-01-09T16:06:56.635Z,7.72
2023-01-09T16:12:43.732Z,7.69
2023-01-09T16:18:38.835Z,7.69
2023-01-09T16:23:53.254Z,7.75
2023-01-09T16:28:57.308Z,7.76
2023-01-09T16:34:06.583Z,7.75
2023-01-09T16:39:19.087Z,7.78
2023-01-09T16:44:42.828Z,7.82
2023-01-09T16:50:15.728Z,7.85
2023-01-09T16:55:21.738Z,7.84
2023-01-09T17:01:04.088Z,7.83
2023-01-09T17:13:33.779Z,7.91
2023-01-09T17:19:20.229Z,7.97
2023-01-09T17:25:29.859Z,7.96
2023-01-09T17:31:15.166Z,8.00
2023-01-09T17:37:05.804Z,8.04
2023-01-09T17:42:33.438Z,8.08
2023-01-09T17:47:42.205Z,8.08
2023-01-09T17:53:07.562Z,8.10
2023-01-09T17:58:32.558Z,8.22
2023-01-09T18:03:47.058Z,8.29
2023-01-09T18:15:32.328Z,8.25
2023-01-09T18:33:59.668Z,8.40
2023-01-09T18:39:43.603Z,8.43
2023-01-09T18:45:57.713Z,8.53
2023-01-09T18:52:00.439Z,8.56
2023-01-09T18:57:30.355Z,8.43
2023-01-09T19:02:37.693Z,8.29
2023-01-09T19:08:01.540Z,8.19
2023-01-09T19:13:05.004Z,8.14
2023-01-09T19:18:08.710Z,8.09
2023-01-09T19:23:12.262Z,8.04
2023-01-09T19:28:19.208Z,8.08
2023-01-09T19:33:25.513Z,8.12
2023-01-09T19:38:29.146Z,8.09
2023-01-09T19:44:04.373Z,8.03
2023-01-09T19:49:10.768Z,8.02
2023-01-09T19:54:16.931Z,8.06
2023-01-09T20:04:57.797Z,8.12
2023-01-09T20:10:01.696Z,8.14
2023-01-09T20:15:14.891Z,8.09
2023-01-09T20:20:27.305Z,8.05
2023-01-09T20:25:30.757Z,8.04
2023-01-09T20:30:53.727Z,8.05
2023-01-09T20:36:17.416Z,8.06
2023-01-09T20:42:01.662Z,7.96
2023-01-09T20:47:08.390Z,7.96
2023-01-09T20:52:11.999Z,7.96
2023-01-09T20:57:17.693Z,7.89
2023-01-09T21:02:24.156Z,7.81
2023-01-09T21:08:08.598Z,7.77
2023-01-09T21:13:32.937Z,7.78
2023-01-09T21:18:36.888Z,7.78
2023-01-09T21:24:19.287Z,7.80
2023-01-09T21:29:38.451Z,7.80
2023-01-09T21:34:42.133Z,7.84
2023-01-09T21:40:39.308Z,7.84
2023-01-09T21:46:18.200Z,7.77
2023-01-09T21:51:41.979Z,7.68
2023-01-09T21:56:57.525Z,7.66
2023-01-09T22:02:41.694Z,7.67
2023-01-09T22:08:06.775Z,7.66
2023-01-09T22:13:22.643Z,7.67
2023-01-09T22:18:29.052Z,7.66
2023-01-09T22:23:45.401Z,7.62
2023-01-09T22:28:51.822Z,7.61
2023-01-09T22:34:00.132Z,7.65
2023-01-09T22:39:15.089Z,7.66
2023-01-09T22:44:19.274Z,7.63
2023-01-09T22:49:53.798Z,7.56
2023-01-09T22:55:11.541Z,7.54
2023-01-09T23:00:18.442Z,7.52
2023-01-09T23:05:24.095Z,7.54
2023-01-09T23:10:37.938Z,7.55
2023-01-09T23:16:04.626Z,7.52
2023-01-09T23:21:33.387Z,7.48
2023-01-09T23:26:58.134Z,7.43
2023-01-09T23:32:14.361Z,7.41
2023-01-09T23:37:58.191Z,7.41
2023-01-09T23:43:30.586Z,7.41
2023-01-09T23:49:07.404Z,7.35
2023-01-09T23:54:17.541Z,7.30
2023-01-09T23:59:21.149Z,7.31
